createdAt,value
2023-11-25T00:02:54.268Z,3.80
2023-11-25T00:12:58.490Z,2.88
2023-11-25T00:33:05.618Z,2.65
2023-11-25T00:43:08.570Z,2.00
2023-11-25T00:53:13.334Z,2.05
2023-11-25T01:03:17.189Z,1.88
2023-11-25T01:13:24.251Z,1.55
2023-11-25T01:23:27.455Z,1.98
2023-11-25T01:33:31.658Z,1.50
2023-11-25T01:43:34.599Z,2.28
2023-11-25T01:53:39.790Z,4.05
2023-11-25T02:03:42.895Z,3.13
2023-11-25T02:13:47.263Z,4.25
2023-11-25T02:23:51.577Z,4.07
2023-11-25T02:33:55.052Z,4.03
2023-11-25T02:44:00.113Z,3.97
2023-11-25T02:54:03.085Z,4.28
2023-11-25T03:04:08.960Z,4.20
2023-11-25T03:14:11.887Z,4.03
2023-11-25T03:24:17.434Z,4.15
2023-11-25T03:34:22.639Z,4.20
2023-11-25T03:44:26.857Z,4.05
2023-11-25T03:54:29.944Z,4.18
2023-11-25T04:04:34.277Z,5.25
2023-11-25T04:14:37.235Z,4.82
2023-11-25T04:24:41.489Z,6.28
2023-11-25T04:34:45.045Z,4.72
2023-11-25T04:44:49.216Z,5.25
2023-11-25T04:54:52.195Z,4.55
2023-11-25T05:04:57.060Z,4.75
2023-11-25T05:14:59.992Z,4.57
2023-11-25T05:25:04.720Z,5.05
2023-11-25T05:35:08.214Z,4.07
2023-11-25T05:45:12.849Z,3.83
2023-11-25T05:55:16.168Z,3.72
2023-11-25T06:05:20.573Z,4.50
2023-11-25T06:15:24.079Z,4.05
2023-11-25T06:25:28.535Z,3.47
2023-11-25T06:35:31.323Z,3.35
2023-11-25T06:45:35.869Z,3.55
2023-11-25T06:55:42.446Z,4.03
2023-11-25T07:05:46.670Z,4.13
2023-11-25T07:15:49.594Z,3.70
2023-11-25T07:25:56.523Z,2.65
2023-11-25T07:35:59.472Z,2.92
2023-11-25T07:46:08.949Z,2.30
2023-11-25T07:56:12.242Z,2.78
2023-11-25T08:06:17.608Z,2.53
2023-11-25T08:16:20.625Z,2.15
2023-11-25T08:26:26.634Z,2.08
2023-11-25T08:36:29.482Z,1.88
2023-11-25T08:46:36.831Z,1.77
2023-11-25T08:56:41.984Z,2.47
2023-11-25T09:06:47.598Z,2.40
2023-11-25T09:16:52.716Z,2.13
2023-11-25T09:27:00.692Z,2.88
2023-11-25T09:37:05.965Z,2.50
2023-11-25T09:47:13.622Z,3.50
2023-11-25T09:57:20.985Z,2.38
2023-11-25T10:07:25.609Z,1.75
2023-11-25T10:17:31.056Z,2.33
2023-11-25T10:27:38.791Z,3.25
2023-11-25T10:37:43.030Z,2.70
2023-11-25T10:47:48.335Z,1.55
2023-11-25T10:57:52.998Z,1.55
2023-11-25T11:08:03.691Z,2.10
2023-11-25T11:18:23.210Z,2.03
2023-11-25T11:28:40.959Z,3.05
2023-11-25T11:38:46.192Z,2.10
2023-11-25T11:48:50.388Z,2.75
2023-11-25T11:58:59.835Z,3.10
2023-11-25T12:09:07.544Z,2.75
2023-11-25T12:19:11.784Z,3.55
2023-11-25T12:29:19.270Z,3.50
2023-11-25T12:39:23.139Z,3.58
2023-11-25T12:49:27.410Z,3.00
2023-11-25T12:59:31.044Z,3.55
2023-11-25T13:09:38.965Z,2.90
2023-11-25T13:19:42.456Z,3.35
2023-11-25T13:29:46.721Z,4.07
2023-11-25T13:39:49.573Z,4.28
2023-11-25T13:49:54.225Z,3.72
2023-11-25T13:59:57.065Z,2.90
2023-11-25T14:10:01.186Z,6.47
2023-11-25T14:20:15.884Z,4.63
2023-11-25T14:30:23.780Z,5.20
2023-11-25T14:40:26.724Z,4.00
2023-11-25T14:50:31.387Z,3.40
2023-11-25T15:00:34.392Z,6.10
2023-11-25T15:11:31.487Z,4.75
2023-11-25T15:21:34.346Z,3.85
2023-11-25T15:31:38.681Z,4.22
2023-11-25T15:41:41.820Z,4.35
2023-11-25T15:51:46.291Z,4.93
2023-11-25T16:01:49.910Z,3.70
2023-11-25T16:21:57.659Z,3.90
2023-11-25T16:32:03.505Z,2.95
2023-11-25T16:42:07.479Z,3.67
2023-11-25T16:52:11.668Z,2.50
2023-11-25T17:02:15.195Z,2.20
2023-11-25T17:12:19.452Z,3.35
2023-11-25T17:22:22.277Z,5.40
2023-11-25T17:32:26.516Z,5.03
2023-11-25T17:42:29.276Z,4.28
2023-11-25T17:52:34.040Z,4.43
2023-11-25T18:02:38.084Z,4.57
2023-11-25T18:12:43.820Z,4.90
2023-11-25T18:22:46.623Z,4.03
2023-11-25T18:32:51.054Z,4.50
2023-11-25T18:42:54.020Z,5.43
2023-11-25T18:52:58.288Z,2.30
2023-11-25T19:03:03.151Z,2.00
2023-11-25T19:13:07.427Z,3.00
2023-11-25T19:23:11.001Z,2.60
2023-11-25T19:33:15.301Z,3.30
2023-11-25T19:43:18.182Z,3.85
2023-11-25T19:53:22.722Z,2.85
2023-11-25T20:03:45.717Z,4.70
2023-11-25T20:13:50.561Z,3.95
2023-11-25T20:23:53.767Z,3.45
2023-11-25T20:33:58.296Z,2.90
2023-11-25T20:44:01.521Z,4.20
2023-11-25T20:54:07.211Z,2.55
2023-11-25T21:04:10.813Z,3.72
2023-11-25T21:14:15.406Z,3.13
2023-11-25T21:24:18.600Z,3.20
2023-11-25T21:34:23.046Z,3.08
2023-11-25T21:44:25.939Z,2.47
2023-11-25T21:54:30.071Z,3.65
2023-11-25T22:04:32.851Z,3.60
2023-11-25T22:14:37.040Z,4.30
2023-11-25T22:24:40.665Z,6.05
2023-11-25T22:34:45.467Z,10.45
2023-11-25T22:44:48.472Z,8.07
2023-11-25T22:54:52.760Z,6.13
2023-11-25T23:04:55.742Z,7.40
2023-11-25T23:15:00.022Z,6.72
2023-11-25T23:25:03.513Z,7.60
2023-11-25T23:45:11.657Z,5.50
2023-11-25T23:55:15.852Z,6.20
